createdAt,value
2022-12-01T00:00:39.332Z,98961.63
2022-12-01T00:01:40.831Z,98963.47
2022-12-01T00:02:42.398Z,98963.47
2022-12-01T00:03:44.139Z,98959.78
2022-12-01T00:04:48.504Z,98963.16
2022-12-01T00:06:05.476Z,98960.53
2022-12-01T00:07:06.882Z,98962.97
2022-12-01T00:08:08.420Z,98957.47
2022-12-01T00:09:28.509Z,98962.69
2022-12-01T00:10:29.905Z,98958.69
2022-12-01T00:11:32.235Z,98961.31
2022-12-01T00:12:33.643Z,98958.25
2022-12-01T00:13:36.171Z,98956.38
2022-12-01T00:14:38.076Z,98960.53
2022-12-01T00:15:39.516Z,98955.31
2022-12-01T00:16:41.158Z,98958.25
2022-12-01T00:17:44.000Z,98962.22
2022-12-01T00:18:50.069Z,98962.97
2022-12-01T00:19:51.526Z,98962.97
2022-12-01T00:20:56.041Z,98960.09
2022-12-01T00:21:57.652Z,98959.00
2022-12-01T00:22:59.413Z,98953.91
2022-12-01T00:24:01.043Z,98963.59
2022-12-01T00:25:02.533Z,98963.59
2022-12-01T00:26:06.719Z,98963.28
2022-12-01T00:27:08.144Z,98960.69
2022-12-01T00:28:09.671Z,98961.75
2022-12-01T00:29:11.857Z,98962.22
2022-12-01T00:30:13.738Z,98963.59
2022-12-01T00:31:15.536Z,98958.06
2022-12-01T00:32:17.124Z,98960.09
2022-12-01T00:33:18.586Z,98960.38
2022-12-01T00:34:25.524Z,98959.59
2022-12-01T00:35:27.021Z,98959.00
2022-12-01T00:36:28.597Z,98959.00
2022-12-01T00:37:31.686Z,98967.16
2022-12-01T00:38:33.496Z,98961.44
2022-12-01T00:39:35.003Z,98965.13
2022-12-01T00:40:36.505Z,98958.84
2022-12-01T00:41:37.932Z,98959.91
2022-12-01T00:42:39.366Z,98957.28
2022-12-01T00:43:40.829Z,98953.91
2022-12-01T00:44:42.648Z,98959.28
2022-12-01T00:45:44.189Z,98958.50
2022-12-01T00:46:45.650Z,98959.69
2022-12-01T00:47:47.088Z,98958.00
2022-12-01T00:48:48.894Z,98969.84
2022-12-01T00:49:52.341Z,98971.38
2022-12-01T00:50:55.019Z,98971.38
2022-12-01T00:51:56.530Z,98972.16
2022-12-01T00:52:57.958Z,98965.56
2022-12-01T00:53:59.632Z,98961.13
2022-12-01T00:55:01.175Z,98964.81
2022-12-01T00:56:02.657Z,98967.13
2022-12-01T00:57:04.127Z,98967.13
2022-12-01T00:58:05.587Z,98968.34
2022-12-01T00:59:07.385Z,98965.44
2022-12-01T01:00:09.730Z,98966.22
2022-12-01T01:01:11.255Z,98972.34
2022-12-01T01:02:12.922Z,98972.34
2022-12-01T01:03:14.445Z,98969.41
2022-12-01T01:04:15.955Z,98967.88
2022-12-01T01:05:17.440Z,98965.72
2022-12-01T01:06:18.939Z,98965.72
2022-12-01T01:07:21.729Z,98963.13
2022-12-01T01:08:23.238Z,98969.13
2022-12-01T01:09:26.362Z,98971.44
2022-12-01T01:10:27.786Z,98969.28
2022-12-01T01:11:29.215Z,98971.31
2022-12-01T01:12:31.054Z,98967.94
2022-12-01T01:13:33.319Z,98973.63
2022-12-01T01:14:34.894Z,98970.22
2022-12-01T01:15:36.717Z,98968.38
2022-12-01T01:16:38.551Z,98972.09
2022-12-01T01:17:40.065Z,98973.63
2022-12-01T01:18:41.756Z,98971.00
2022-12-01T01:19:43.214Z,98966.84
2022-12-01T01:20:44.660Z,98969.78
2022-12-01T01:21:46.144Z,98965.91
2022-12-01T01:22:47.613Z,98972.09
2022-12-01T01:23:50.400Z,98966.84
2022-12-01T01:24:51.823Z,98969.16
2022-12-01T01:25:53.274Z,98974.38
2022-12-01T01:26:55.395Z,98975.16
2022-12-01T01:27:56.817Z,98979.63
2022-12-01T01:29:01.622Z,98977.91
2022-12-01T01:30:04.110Z,98976.38
2022-12-01T01:31:14.238Z,98976.06
2022-12-01T01:32:15.741Z,98975.28
2022-12-01T01:33:17.537Z,98973.44
2022-12-01T01:34:19.025Z,98976.06
2022-12-01T01:35:20.461Z,98971.91
2022-12-01T01:36:22.637Z,98974.81
2022-12-01T01:37:24.164Z,98978.97
2022-12-01T01:38:26.475Z,98976.06
2022-12-01T01:39:28.130Z,98978.66
2022-12-01T01:40:29.570Z,98976.84
2022-12-01T01:41:31.151Z,98980.69
2022-12-01T01:42:32.593Z,98973.94
2022-12-01T01:43:58.818Z,98973.16
2022-12-01T01:45:00.308Z,98977.13
2022-12-01T01:46:01.851Z,98973.44
2022-12-01T01:47:03.393Z,98974.69
2022-12-01T01:48:05.368Z,98974.06
2022-12-01T01:49:09.741Z,98976.38
2022-12-01T01:50:14.832Z,98972.09
2022-12-01T01:51:19.528Z,98970.53
2022-12-01T01:52:22.794Z,98979.91
2022-12-01T01:53:24.621Z,98979.91
2022-12-01T01:54:35.237Z,98977.31
2022-12-01T01:55:36.981Z,98974.38
2022-12-01T01:56:38.455Z,98977.00
2022-12-01T01:57:40.631Z,98974.38
2022-12-01T01:58:42.533Z,98977.78
2022-12-01T01:59:49.794Z,98976.22
2022-12-01T02:00:51.470Z,98982.22
2022-12-01T02:02:03.488Z,98978.38
2022-12-01T02:03:05.308Z,98982.34
2022-12-01T02:04:07.415Z,98974.81
2022-12-01T02:05:11.921Z,98981.28
2022-12-01T02:06:13.954Z,98980.50
2022-12-01T02:07:19.093Z,98976.53
2022-12-01T02:08:20.708Z,98978.97
2022-12-01T02:09:22.146Z,98971.91
2022-12-01T02:10:43.260Z,98967.63
2022-12-01T02:12:11.583Z,98969.59
2022-12-01T02:13:24.522Z,98972.22
2022-12-01T02:14:43.453Z,98972.81
2022-12-01T02:15:47.522Z,98977.13
2022-12-01T02:17:01.185Z,98983.75
2022-12-01T02:18:25.109Z,98975.59
2022-12-01T02:20:17.625Z,98974.22
2022-12-01T02:21:35.246Z,98972.66
2022-12-01T02:23:00.341Z,98971.44
2022-12-01T02:24:25.881Z,98972.97
2022-12-01T02:25:45.306Z,98973.28
2022-12-01T02:26:52.949Z,98972.22
2022-12-01T02:28:16.089Z,98968.69
2022-12-01T02:30:08.886Z,98968.88
2022-12-01T02:31:22.761Z,98965.78
2022-12-01T02:32:33.571Z,98965.31
2022-12-01T02:33:51.336Z,98970.81
2022-12-01T02:35:07.551Z,98968.09
2022-12-01T02:36:20.451Z,98964.69
2022-12-01T02:37:37.665Z,98968.06
2022-12-01T02:38:44.990Z,98972.22
2022-12-01T02:40:11.541Z,98968.53
2022-12-01T02:41:24.430Z,98969.28
2022-12-01T02:42:54.707Z,98971.31
2022-12-01T02:44:03.390Z,98970.22
2022-12-01T02:45:10.456Z,98969.94
2022-12-01T02:46:18.359Z,98973.16
2022-12-01T02:47:20.615Z,98971.63
2022-12-01T02:48:28.794Z,98965.31
2022-12-01T02:49:36.050Z,98965.59
2022-12-01T02:50:39.848Z,98961.44
2022-12-01T02:51:46.744Z,98964.06
2022-12-01T02:52:49.346Z,98965.13
2022-12-01T02:53:51.606Z,98959.91
2022-12-01T02:54:53.352Z,98962.53
2022-12-01T02:55:58.894Z,98964.06
2022-12-01T02:57:00.308Z,98959.59
2022-12-01T02:58:02.144Z,98953.59
2022-12-01T02:59:10.466Z,98956.69
2022-12-01T03:00:13.785Z,98958.06
2022-12-01T03:01:38.046Z,98955.63
2022-12-01T03:02:48.557Z,98956.09
2022-12-01T03:04:21.872Z,98955.44
2022-12-01T03:05:40.701Z,98945.88
2022-12-01T03:06:42.257Z,98954.22
2022-12-01T03:08:07.259Z,98944.53
2022-12-01T03:09:14.847Z,98947.91
2022-12-01T03:10:28.292Z,98946.06
2022-12-01T03:11:43.413Z,98945.75
2022-12-01T03:12:51.778Z,98942.69
2022-12-01T03:14:29.305Z,98947.44
2022-12-01T03:15:48.548Z,98947.44
2022-12-01T03:16:52.659Z,98938.03
2022-12-01T03:18:04.327Z,98945.88
2022-12-01T03:19:13.951Z,98936.38
2022-12-01T03:20:30.927Z,98942.38
2022-12-01T03:21:42.242Z,98936.56
2022-12-01T03:22:53.957Z,98939.44
2022-12-01T03:24:01.176Z,98944.41
2022-12-01T03:25:04.329Z,98946.25
2022-12-01T03:26:09.448Z,98940.53
2022-12-01T03:27:13.671Z,98939.94
2022-12-01T03:28:21.543Z,98945.16
2022-12-01T03:29:28.507Z,98940.69
2022-12-01T03:30:35.020Z,98941.47
2022-12-01T03:31:42.611Z,98938.69
2022-12-01T03:32:49.047Z,98936.84
2022-12-01T03:33:56.811Z,98943.31
2022-12-01T03:35:08.893Z,98941.97
2022-12-01T03:36:16.602Z,98944.56
2022-12-01T03:37:26.235Z,98941.97
2022-12-01T03:38:30.349Z,98941.66
2022-12-01T03:39:35.032Z,98938.72
2022-12-01T03:40:38.715Z,98938.25
2022-12-01T03:41:50.412Z,98938.84
2022-12-01T03:43:07.414Z,98943.31
2022-12-01T03:44:15.613Z,98932.09
2022-12-01T03:45:29.602Z,98939.75
2022-12-01T03:46:44.453Z,98945.75
2022-12-01T03:47:46.106Z,98930.06
2022-12-01T03:48:47.806Z,98936.84
2022-12-01T03:49:52.854Z,98937.63
2022-12-01T03:51:14.626Z,98943.16
2022-12-01T03:52:26.380Z,98946.53
2022-12-01T03:53:38.228Z,98936.56
2022-12-01T03:54:45.377Z,98939.63
2022-12-01T03:55:54.569Z,98943.50
2022-12-01T03:56:59.696Z,98938.09
2022-12-01T03:58:26.036Z,98939.81
2022-12-01T03:59:29.215Z,98943.94
2022-12-01T04:00:34.454Z,98943.94
2022-12-01T04:01:36.578Z,98947.81
2022-12-01T04:02:38.456Z,98947.06
2022-12-01T04:03:40.488Z,98951.97
2022-12-01T04:04:41.951Z,98948.59
2022-12-01T04:05:43.879Z,98948.09
2022-12-01T04:06:49.979Z,98952.56
2022-12-01T04:07:51.511Z,98949.50
2022-12-01T04:08:52.962Z,98944.72
2022-12-01T04:09:54.763Z,98949.66
2022-12-01T04:10:57.247Z,98946.75
2022-12-01T04:12:17.094Z,98943.19
2022-12-01T04:13:24.330Z,98943.66
2022-12-01T04:14:25.834Z,98943.50
2022-12-01T04:15:28.500Z,98948.72
2022-12-01T04:16:30.009Z,98945.03
2022-12-01T04:17:32.040Z,98952.56
2022-12-01T04:18:33.449Z,98943.50
2022-12-01T04:19:34.890Z,98943.78
2022-12-01T04:20:36.646Z,98946.09
2022-12-01T04:21:38.113Z,98944.56
2022-12-01T04:22:40.062Z,98937.50
2022-12-01T04:24:00.236Z,98939.81
2022-12-01T04:25:02.312Z,98938.72
2022-12-01T04:26:04.919Z,98938.72
2022-12-01T04:27:06.342Z,98937.19
2022-12-01T04:28:07.995Z,98931.00
2022-12-01T04:29:10.935Z,98937.31
2022-12-01T04:30:13.082Z,98934.72
2022-12-01T04:31:14.573Z,98937.78
2022-12-01T04:32:16.498Z,98943.78
2022-12-01T04:33:18.070Z,98941.97
2022-12-01T04:34:19.575Z,98937.19
2022-12-01T04:35:21.311Z,98931.97
2022-12-01T04:36:24.117Z,98936.09
2022-12-01T04:37:25.578Z,98940.56
2022-12-01T04:38:30.791Z,98933.50
2022-12-01T04:39:32.592Z,98945.81
2022-12-01T04:40:34.354Z,98943.19
2022-12-01T04:41:35.777Z,98939.50
2022-12-01T04:42:37.297Z,98936.88
2022-12-01T04:43:38.920Z,98939.22
2022-12-01T04:44:40.395Z,98936.59
2022-12-01T04:45:42.340Z,98944.44
2022-12-01T04:46:43.928Z,98942.28
2022-12-01T04:47:45.382Z,98937.50
2022-12-01T04:48:46.874Z,98935.97
2022-12-01T04:49:48.952Z,98942.75
2022-12-01T04:50:50.701Z,98942.75
2022-12-01T04:51:52.182Z,98937.50
2022-12-01T04:52:54.119Z,98935.22
2022-12-01T04:53:55.546Z,98937.81
2022-12-01T04:55:08.909Z,98938.13
2022-12-01T04:56:10.563Z,98936.59
2022-12-01T04:57:12.056Z,98939.03
2022-12-01T04:58:13.537Z,98940.69
2022-12-01T04:59:16.062Z,98933.44
2022-12-01T05:00:18.519Z,98935.28
2022-12-01T05:01:23.327Z,98939.16
2022-12-01T05:02:24.948Z,98934.72
2022-12-01T05:03:26.487Z,98942.72
2022-12-01T05:04:27.944Z,98945.81
2022-12-01T05:05:30.395Z,98945.97
2022-12-01T05:06:31.863Z,98943.66
2022-12-01T05:07:33.357Z,98944.72
2022-12-01T05:08:34.863Z,98952.56
2022-12-01T05:09:36.428Z,98949.19
2022-12-01T05:10:38.541Z,98953.66
2022-12-01T05:11:40.078Z,98951.03
2022-12-01T05:12:41.498Z,98949.19
2022-12-01T05:13:45.116Z,98949.94
2022-12-01T05:14:46.859Z,98948.91
2022-12-01T05:15:48.266Z,98944.44
2022-12-01T05:16:49.786Z,98948.09
2022-12-01T05:17:51.222Z,98948.91
2022-12-01T05:19:14.254Z,98948.91
2022-12-01T05:20:40.484Z,98941.34
2022-12-01T05:21:43.744Z,98949.66
2022-12-01T05:23:04.929Z,98950.13
2022-12-01T05:24:07.984Z,98945.34
2022-12-01T05:25:09.403Z,98945.66
2022-12-01T05:26:11.479Z,98947.81
2022-12-01T05:27:12.892Z,98948.59
2022-12-01T05:28:14.327Z,98941.50
2022-12-01T05:29:18.254Z,98951.03
2022-12-01T05:30:23.106Z,98949.94
2022-12-01T05:31:28.496Z,98948.91
2022-12-01T05:32:29.924Z,98945.22
2022-12-01T05:33:31.426Z,98945.22
2022-12-01T05:34:33.169Z,98946.75
2022-12-01T05:35:34.729Z,98945.34
2022-12-01T05:36:36.483Z,98946.16
2022-12-01T05:37:37.914Z,98947.38
2022-12-01T05:38:39.371Z,98942.88
2022-12-01T05:39:41.123Z,98941.81
2022-12-01T05:40:42.780Z,98935.50
2022-12-01T05:41:44.192Z,98934.91
2022-12-01T05:42:45.614Z,98926.59
2022-12-01T05:43:47.156Z,98929.38
2022-12-01T05:44:48.642Z,98931.50
2022-12-01T05:45:50.297Z,98927.53
2022-12-01T05:46:51.798Z,98930.47
2022-12-01T05:47:57.484Z,98926.72
2022-12-01T05:48:59.016Z,98921.81
2022-12-01T05:50:05.197Z,98919.97
2022-12-01T05:51:15.776Z,98922.75
2022-12-01T05:52:17.220Z,98923.97
2022-12-01T05:53:19.302Z,98921.06
2022-12-01T05:54:21.314Z,98923.66
2022-12-01T05:55:22.787Z,98925.06
2022-12-01T05:56:24.335Z,98924.13
2022-12-01T05:57:25.769Z,98927.03
2022-12-01T05:58:27.162Z,98928.25
2022-12-01T05:59:28.908Z,98932.13
2022-12-01T06:00:30.423Z,98929.22
2022-12-01T06:01:31.849Z,98926.59
2022-12-01T06:02:33.250Z,98935.97
2022-12-01T06:03:34.707Z,98934.44
2022-12-01T06:04:36.573Z,98928.75
2022-12-01T06:05:37.973Z,98925.81
2022-12-01T06:06:39.431Z,98938.91
2022-12-01T06:07:40.982Z,98938.59
2022-12-01T06:08:42.440Z,98937.81
2022-12-01T06:09:48.823Z,98933.06
2022-12-01T06:10:50.384Z,98933.06
2022-12-01T06:11:52.742Z,98935.84
2022-12-01T06:12:54.294Z,98935.56
2022-12-01T06:13:56.107Z,98940.78
2022-12-01T06:14:57.592Z,98942.16
2022-12-01T06:16:05.146Z,98938.31
2022-12-01T06:17:07.853Z,98937.22
2022-12-01T06:18:09.396Z,98939.53
2022-12-01T06:19:11.350Z,98942.16
2022-12-01T06:20:13.029Z,98939.84
2022-12-01T06:21:14.448Z,98940.91
2022-12-01T06:22:15.901Z,98941.38
2022-12-01T06:23:17.349Z,98938.44
2022-12-01T06:24:18.863Z,98937.69
2022-12-01T06:25:20.524Z,98945.34
2022-12-01T06:26:21.964Z,98945.97
2022-12-01T06:27:24.213Z,98944.13
2022-12-01T06:28:25.992Z,98947.81
2022-12-01T06:29:27.454Z,98947.81
2022-12-01T06:30:28.922Z,98942.41
2022-12-01T06:31:30.381Z,98941.34
2022-12-01T06:32:31.903Z,98944.56
2022-12-01T06:33:33.393Z,98946.09
2022-12-01T06:34:34.841Z,98947.66
2022-12-01T06:35:37.151Z,98955.19
2022-12-01T06:36:38.560Z,98948.59
2022-12-01T06:37:39.993Z,98952.44
2022-12-01T06:38:41.748Z,98954.75
2022-12-01T06:39:43.575Z,98952.16
2022-12-01T06:40:45.151Z,98949.06
2022-12-01T06:41:46.744Z,98958.28
2022-12-01T06:42:48.172Z,98953.19
2022-12-01T06:43:49.933Z,98953.31
2022-12-01T06:44:51.583Z,98961.03
2022-12-01T06:45:57.784Z,98961.97
2022-12-01T06:47:02.546Z,98953.34
2022-12-01T06:48:04.028Z,98968.44
2022-12-01T06:49:05.530Z,98963.66
2022-12-01T06:50:09.883Z,98960.59
2022-12-01T06:51:11.604Z,98960.59
2022-12-01T06:52:13.044Z,98958.44
2022-12-01T06:53:14.813Z,98958.44
2022-12-01T06:54:17.862Z,98955.22
2022-12-01T06:55:19.223Z,98960.00
2022-12-01T06:56:21.344Z,98958.16
2022-12-01T06:57:23.094Z,98954.75
2022-12-01T06:58:24.970Z,98957.66
2022-12-01T06:59:26.752Z,98952.16
2022-12-01T07:00:28.807Z,98953.69
2022-12-01T07:01:30.583Z,98955.22
2022-12-01T07:02:32.198Z,98954.16
2022-12-01T07:03:33.669Z,98956.47
2022-12-01T07:04:35.102Z,98959.09
2022-12-01T07:05:36.792Z,98960.16
2022-12-01T07:06:38.275Z,98961.72
2022-12-01T07:07:39.977Z,98962.66
2022-12-01T07:08:41.656Z,98957.72
2022-12-01T07:09:43.092Z,98954.81
2022-12-01T07:10:44.502Z,98961.56
2022-12-01T07:11:45.942Z,98960.94
2022-12-01T07:12:47.372Z,98965.81
2022-12-01T07:13:50.337Z,98968.13
2022-12-01T07:14:51.767Z,98963.66
2022-12-01T07:15:53.165Z,98964.47
2022-12-01T07:16:55.008Z,98960.47
2022-12-01T07:17:56.530Z,98962.00
2022-12-01T07:19:00.538Z,98958.00
2022-12-01T07:20:02.015Z,98957.72
2022-12-01T07:21:05.994Z,98957.72
2022-12-01T07:22:07.431Z,98961.72
2022-12-01T07:23:08.883Z,98956.47
2022-12-01T07:24:12.859Z,98956.31
2022-12-01T07:25:14.625Z,98958.59
2022-12-01T07:26:18.348Z,98959.38
2022-12-01T07:27:19.905Z,98960.94
2022-12-01T07:28:21.491Z,98968.47
2022-12-01T07:29:23.558Z,98955.84
2022-12-01T07:30:28.423Z,98959.72
2022-12-01T07:31:30.345Z,98968.66
2022-12-01T07:32:32.290Z,98963.84
2022-12-01T07:33:34.164Z,98970.31
2022-12-01T07:34:35.707Z,98963.69
2022-12-01T07:35:37.128Z,98971.09
2022-12-01T07:36:38.803Z,98976.31
2022-12-01T07:37:40.282Z,98966.31
2022-12-01T07:38:42.190Z,98971.28
2022-12-01T07:39:43.613Z,98976.78
2022-12-01T07:40:45.099Z,98975.72
2022-12-01T07:41:46.645Z,98972.31
2022-12-01T07:42:48.104Z,98970.00
2022-12-01T07:43:49.550Z,98975.19
2022-12-01T07:44:50.986Z,98975.97
2022-12-01T07:45:52.445Z,98977.53
2022-12-01T07:46:54.248Z,98979.72
2022-12-01T07:47:55.662Z,98976.78
2022-12-01T07:48:57.726Z,98981.72
2022-12-01T07:49:59.165Z,98976.00
2022-12-01T07:51:00.716Z,98978.34
2022-12-01T07:52:02.216Z,98978.03
2022-12-01T07:53:03.826Z,98974.03
2022-12-01T07:54:07.119Z,98972.31
2022-12-01T07:55:08.688Z,98970.19
2022-12-01T07:56:10.304Z,98972.81
2022-12-01T07:57:14.716Z,98975.41
2022-12-01T07:58:17.305Z,98970.19
2022-12-01T07:59:18.713Z,98966.50
2022-12-01T08:00:20.628Z,98969.59
2022-12-01T08:01:23.721Z,98966.66
2022-12-01T08:02:25.421Z,98972.34
2022-12-01T08:03:26.950Z,98968.38
2022-12-01T08:04:28.357Z,98967.47
2022-12-01T08:05:29.757Z,98975.31
2022-12-01T08:06:31.181Z,98970.53
2022-12-01T08:07:32.656Z,98968.41
2022-12-01T08:08:36.004Z,98975.50
2022-12-01T08:09:37.406Z,98972.88
2022-12-01T08:10:38.812Z,98971.03
2022-12-01T08:11:40.436Z,98976.25
2022-12-01T08:12:41.914Z,98973.47
2022-12-01T08:13:44.499Z,98977.16
2022-12-01T08:14:45.917Z,98977.16
2022-12-01T08:15:47.386Z,98970.53
2022-12-01T08:16:49.253Z,98970.25
2022-12-01T08:17:53.675Z,98975.94
2022-12-01T08:18:55.559Z,98970.72
2022-12-01T08:19:56.962Z,98978.75
2022-12-01T08:20:58.395Z,98975.34
2022-12-01T08:21:59.831Z,98964.91
2022-12-01T08:23:01.751Z,98972.75
2022-12-01T08:24:04.349Z,98969.31
2022-12-01T08:25:06.181Z,98974.28
2022-12-01T08:26:12.751Z,98973.34
2022-12-01T08:27:14.212Z,98970.41
2022-12-01T08:28:15.947Z,98970.91
2022-12-01T08:29:20.361Z,98977.66
2022-12-01T08:30:22.979Z,98968.72
2022-12-01T08:31:30.013Z,98969.22
2022-12-01T08:32:31.594Z,98972.59
2022-12-01T08:33:33.362Z,98970.44
2022-12-01T08:34:38.632Z,98970.44
2022-12-01T08:35:40.065Z,98973.06
2022-12-01T08:36:41.475Z,98969.66
2022-12-01T08:37:42.999Z,98973.22
2022-12-01T08:38:46.286Z,98976.63
2022-12-01T08:39:47.872Z,98974.44
2022-12-01T08:40:49.414Z,98972.59
2022-12-01T08:41:50.833Z,98979.09
2022-12-01T08:42:53.362Z,98971.56
2022-12-01T08:43:59.412Z,98980.16
2022-12-01T08:45:01.606Z,98976.63
2022-12-01T08:46:03.141Z,98976.31
2022-12-01T08:47:04.745Z,98972.94
2022-12-01T08:48:06.362Z,98980.47
2022-12-01T08:49:07.833Z,98975.56
2022-12-01T08:50:10.948Z,98970.31
2022-12-01T08:51:14.984Z,98971.56
2022-12-01T08:52:16.424Z,98975.72
2022-12-01T08:53:17.895Z,98982.19
2022-12-01T08:54:19.307Z,98982.03
2022-12-01T08:55:21.952Z,98978.81
2022-12-01T08:56:32.822Z,98979.75
2022-12-01T08:57:34.267Z,98982.03
2022-12-01T08:58:36.053Z,98980.19
2022-12-01T08:59:37.519Z,98977.25
2022-12-01T09:00:38.932Z,98979.56
2022-12-01T09:01:52.563Z,98982.97
2022-12-01T09:02:54.464Z,98985.28
2022-12-01T09:04:08.293Z,98986.06
2022-12-01T09:05:10.305Z,98987.28
2022-12-01T09:06:20.903Z,98987.28
2022-12-01T09:07:26.296Z,98987.75
2022-12-01T09:08:31.561Z,98987.44
2022-12-01T09:09:35.288Z,98994.53
2022-12-01T09:10:36.746Z,98988.97
2022-12-01T09:11:39.052Z,98987.44
2022-12-01T09:12:40.571Z,98996.06
2022-12-01T09:13:43.378Z,98994.97
2022-12-01T09:14:49.594Z,98994.69
2022-12-01T09:15:58.285Z,98994.38
2022-12-01T09:16:59.778Z,98997.59
2022-12-01T09:18:01.288Z,98997.16
2022-12-01T09:19:03.043Z,98999.16
2022-12-01T09:20:05.047Z,99003.00
2022-12-01T09:21:14.887Z,99005.63
2022-12-01T09:22:16.393Z,98998.06
2022-12-01T09:23:18.216Z,98998.06
2022-12-01T09:24:19.751Z,99002.53
2022-12-01T09:25:21.156Z,99002.38
2022-12-01T09:26:23.670Z,98999.00
2022-12-01T09:27:25.546Z,99001.78
2022-12-01T09:28:27.003Z,98995.63
2022-12-01T09:29:28.547Z,99005.19
2022-12-01T09:30:29.973Z,98998.09
2022-12-01T09:31:31.468Z,98995.91
2022-12-01T09:32:33.262Z,98992.84
2022-12-01T09:33:34.976Z,98998.53
2022-12-01T09:34:36.391Z,98998.41
2022-12-01T09:35:38.190Z,98995.19
2022-12-01T09:36:40.444Z,98997.34
2022-12-01T09:37:42.302Z,98988.91
2022-12-01T09:38:43.970Z,98994.91
2022-12-01T09:39:45.468Z,98992.13
2022-12-01T09:40:46.927Z,98996.94
2022-12-01T09:42:04.997Z,98998.63
2022-12-01T09:43:20.714Z,98992.75
2022-12-01T09:44:42.046Z,98991.06
2022-12-01T09:45:48.446Z,98994.00
2022-12-01T09:47:14.496Z,98991.06
2022-12-01T09:48:42.827Z,98985.22
2022-12-01T09:49:59.046Z,98984.75
2022-12-01T09:51:00.976Z,98985.22
2022-12-01T09:52:02.511Z,98985.06
2022-12-01T09:53:09.010Z,98976.56
2022-12-01T09:54:13.454Z,98983.06
2022-12-01T09:55:18.191Z,98982.91
2022-12-01T09:56:28.946Z,98975.97
2022-12-01T09:57:36.858Z,98972.13
2022-12-01T09:58:38.845Z,98983.38
2022-12-01T09:59:43.123Z,98974.28
2022-12-01T10:00:45.942Z,98975.47
2022-12-01T10:01:51.404Z,98972.25
2022-12-01T10:02:56.837Z,98975.97
2022-12-01T10:04:06.268Z,98980.28
2022-12-01T10:05:16.871Z,98968.09
2022-12-01T10:06:29.730Z,98973.31
2022-12-01T10:07:40.166Z,98968.53
2022-12-01T10:09:00.572Z,98972.41
2022-12-01T10:10:14.350Z,98962.69
2022-12-01T10:11:28.809Z,98968.53
2022-12-01T10:12:33.462Z,98957.91
2022-12-01T10:13:35.304Z,98953.91
2022-12-01T10:14:37.757Z,98961.00
2022-12-01T10:16:04.136Z,98956.66
2022-12-01T10:17:35.996Z,98964.06
2022-12-01T10:19:01.754Z,98958.66
2022-12-01T10:20:15.210Z,98953.72
2022-12-01T10:21:32.403Z,98954.31
2022-12-01T10:23:06.267Z,98953.88
2022-12-01T10:24:40.000Z,98957.53
2022-12-01T10:25:49.396Z,98956.13
2022-12-01T10:26:59.904Z,98947.19
2022-12-01T10:28:30.345Z,98945.91
2022-12-01T10:29:59.098Z,98948.03
2022-12-01T10:31:18.009Z,98945.13
2022-12-01T10:32:28.020Z,98944.47
2022-12-01T10:33:45.483Z,98937.22
2022-12-01T10:34:48.268Z,98940.31
2022-12-01T10:35:50.693Z,98938.53
2022-12-01T10:36:52.794Z,98943.41
2022-12-01T10:37:58.855Z,98936.13
2022-12-01T10:39:02.598Z,98939.06
2022-12-01T10:40:04.725Z,98936.28
2022-12-01T10:41:13.789Z,98941.16
2022-12-01T10:42:40.853Z,98930.19
2022-12-01T10:43:47.069Z,98935.88
2022-12-01T10:44:50.390Z,98930.44
2022-12-01T10:45:52.391Z,98930.69
2022-12-01T10:46:55.848Z,98931.28
2022-12-01T10:48:15.591Z,98930.22
2022-12-01T10:49:18.550Z,98928.94
2022-12-01T10:50:28.158Z,98929.16
2022-12-01T10:51:29.630Z,98933.22
2022-12-01T10:52:34.272Z,98932.88
2022-12-01T10:53:36.664Z,98932.25
2022-12-01T10:54:40.824Z,98933.47
2022-12-01T10:55:47.774Z,98933.41
2022-12-01T10:56:55.471Z,98933.78
2022-12-01T10:58:01.527Z,98929.78
2022-12-01T10:59:34.272Z,98932.31
2022-12-01T11:00:59.202Z,98922.25
2022-12-01T11:02:04.179Z,98929.81
2022-12-01T11:03:06.706Z,98928.97
2022-12-01T11:04:45.645Z,98933.41
2022-12-01T11:05:53.182Z,98925.72
2022-12-01T11:06:55.239Z,98925.53
2022-12-01T11:07:56.838Z,98930.59
2022-12-01T11:09:04.017Z,98922.41
2022-12-01T11:10:23.842Z,98925.03
2022-12-01T11:11:34.376Z,98923.59
2022-12-01T11:12:36.079Z,98922.97
2022-12-01T11:13:37.850Z,98924.19
2022-12-01T11:14:51.639Z,98925.41
2022-12-01T11:15:58.687Z,98927.84
2022-12-01T11:17:23.683Z,98918.84
2022-12-01T11:18:27.982Z,98917.75
2022-12-01T11:19:33.603Z,98917.53
2022-12-01T11:20:38.530Z,98928.22
2022-12-01T11:21:49.296Z,98924.84
2022-12-01T11:22:50.766Z,98925.28
2022-12-01T11:23:55.088Z,98923.75
2022-12-01T11:24:58.633Z,98916.38
2022-12-01T11:26:09.961Z,98918.81
2022-12-01T11:27:21.573Z,98917.91
2022-12-01T11:28:23.397Z,98910.72
2022-12-01T11:29:29.346Z,98909.13
2022-12-01T11:30:32.817Z,98913.88
2022-12-01T11:31:48.006Z,98913.25
2022-12-01T11:32:56.929Z,98910.66
2022-12-01T11:33:58.460Z,98910.03
2022-12-01T11:35:04.262Z,98902.41
2022-12-01T11:36:10.614Z,98899.91
2022-12-01T11:37:19.010Z,98909.06
2022-12-01T11:38:30.722Z,98906.56
2022-12-01T11:39:36.418Z,98905.97
2022-12-01T11:40:49.967Z,98900.09
2022-12-01T11:41:57.049Z,98909.94
2022-12-01T11:43:04.914Z,98896.75
2022-12-01T11:44:43.213Z,98900.47
2022-12-01T11:45:40.499Z,98896.81
2022-12-01T11:46:50.203Z,98904.81
2022-12-01T11:48:12.451Z,98897.97
2022-12-01T11:49:22.567Z,98894.50
2022-12-01T11:50:27.696Z,98893.91
2022-12-01T11:51:37.498Z,98897.13
2022-12-01T11:52:48.654Z,98901.50
2022-12-01T11:54:05.892Z,98896.38
2022-12-01T11:55:13.146Z,98892.34
2022-12-01T11:56:23.678Z,98892.19
2022-12-01T11:57:35.624Z,98891.69
2022-12-01T11:58:37.193Z,98891.13
2022-12-01T11:59:38.670Z,98894.16
2022-12-01T12:00:52.013Z,98893.97
2022-12-01T12:02:04.364Z,98889.53
2022-12-01T12:03:38.053Z,98890.88
2022-12-01T12:04:39.392Z,98891.31
2022-12-01T12:06:01.368Z,98899.34
2022-12-01T12:07:32.817Z,98887.84
2022-12-01T12:08:52.941Z,98889.31
2022-12-01T12:10:23.642Z,98882.34
2022-12-01T12:11:39.421Z,98888.16
2022-12-01T12:12:52.589Z,98886.84
2022-12-01T12:14:20.517Z,98886.31
2022-12-01T12:15:41.311Z,98884.47
2022-12-01T12:16:45.766Z,98883.25
2022-12-01T12:17:54.076Z,98883.53
2022-12-01T12:19:14.196Z,98879.38
2022-12-01T12:20:35.752Z,98878.41
2022-12-01T12:21:46.157Z,98881.91
2022-12-01T12:22:59.976Z,98873.56
2022-12-01T12:24:20.304Z,98876.00
2022-12-01T12:25:52.044Z,98870.22
2022-12-01T12:27:15.275Z,98880.00
2022-12-01T12:28:47.460Z,98867.00
2022-12-01T12:30:12.126Z,98871.72
2022-12-01T12:31:31.897Z,98880.28
2022-12-01T12:33:05.251Z,98871.84
2022-12-01T12:34:31.119Z,98868.53
2022-12-01T12:35:50.882Z,98866.16
2022-12-01T12:37:05.005Z,98864.94
2022-12-01T12:38:25.273Z,98867.03
2022-12-01T12:40:16.246Z,98863.88
2022-12-01T12:41:39.738Z,98864.69
2022-12-01T12:43:04.107Z,98872.16
2022-12-01T12:44:39.243Z,98864.00
2022-12-01T12:46:11.751Z,98858.22
2022-12-01T12:47:36.614Z,98865.63
2022-12-01T12:49:23.717Z,98864.00
2022-12-01T12:50:44.893Z,98858.81
2022-12-01T12:51:53.123Z,98860.72
2022-12-01T12:52:59.879Z,98862.63
2022-12-01T12:54:18.860Z,98860.91
2022-12-01T12:55:28.401Z,98858.19
2022-12-01T12:56:32.034Z,98860.44
2022-12-01T12:57:37.483Z,98864.84
2022-12-01T12:58:58.077Z,98859.47
2022-12-01T13:00:04.947Z,98867.03